createdAt,value
2023-03-03T00:01:06.569Z,20.05
2023-03-03T00:06:11.580Z,21.70
2023-03-03T00:11:13.502Z,17.98
2023-03-03T00:16:26.531Z,20.50
2023-03-03T00:21:41.090Z,18.23
2023-03-03T00:26:46.927Z,19.70
2023-03-03T00:31:49.047Z,21.63
2023-03-03T00:36:54.848Z,20.85
2023-03-03T00:41:57.716Z,19.88
2023-03-03T00:47:11.862Z,21.17
2023-03-03T00:52:18.777Z,20.95
2023-03-03T00:57:20.419Z,19.65
2023-03-03T01:02:23.204Z,22.40
2023-03-03T01:07:25.664Z,22.30
2023-03-03T01:12:27.197Z,20.08
2023-03-03T01:17:29.268Z,19.23
2023-03-03T01:22:34.240Z,19.40
2023-03-03T01:27:36.695Z,20.17
2023-03-03T01:32:40.590Z,18.92
2023-03-03T01:37:42.391Z,20.52
2023-03-03T01:42:43.928Z,21.48
2023-03-03T01:47:51.113Z,20.52
2023-03-03T01:52:52.700Z,22.25
2023-03-03T01:58:03.683Z,22.40
2023-03-03T02:03:06.002Z,19.83
2023-03-03T02:08:12.372Z,20.77
2023-03-03T02:13:14.067Z,24.20
2023-03-03T02:18:20.768Z,24.20
2023-03-03T02:23:25.368Z,21.13
2023-03-03T02:28:30.275Z,23.77
2023-03-03T02:33:35.367Z,23.70
2023-03-03T02:38:56.259Z,22.10
2023-03-03T02:44:01.419Z,23.75
2023-03-03T02:49:08.253Z,23.42
2023-03-03T02:54:11.396Z,21.63
2023-03-03T02:59:13.319Z,22.17
2023-03-03T03:04:22.698Z,19.35
2023-03-03T03:09:26.291Z,32.60
2023-03-03T03:14:29.614Z,24.13
2023-03-03T03:19:31.831Z,21.88
2023-03-03T03:24:38.704Z,28.25
2023-03-03T03:29:43.279Z,22.17
2023-03-03T03:34:45.096Z,25.50
2023-03-03T03:39:46.749Z,23.85
2023-03-03T03:44:50.968Z,21.70
2023-03-03T03:49:53.190Z,26.50
2023-03-03T03:54:55.101Z,23.40
2023-03-03T03:59:56.970Z,23.67
2023-03-03T04:04:58.775Z,20.40
2023-03-03T04:10:00.584Z,23.85
2023-03-03T04:15:05.515Z,23.10
2023-03-03T04:20:09.222Z,23.05
2023-03-03T04:25:15.640Z,22.88
2023-03-03T04:30:18.615Z,22.08
2023-03-03T04:35:22.863Z,22.08
2023-03-03T04:40:24.540Z,22.27
2023-03-03T04:45:26.619Z,21.90
2023-03-03T04:50:28.530Z,19.30
2023-03-03T04:55:30.289Z,21.05
2023-03-03T05:00:31.957Z,23.33
2023-03-03T05:05:35.732Z,26.13
2023-03-03T05:10:37.286Z,23.30
2023-03-03T05:15:39.219Z,23.25
2023-03-03T05:20:42.068Z,21.95
2023-03-03T05:25:44.006Z,25.13
2023-03-03T05:30:46.570Z,21.58
2023-03-03T05:35:48.162Z,22.10
2023-03-03T05:40:50.073Z,20.45
2023-03-03T05:45:56.747Z,22.05
2023-03-03T05:51:01.909Z,20.75
2023-03-03T05:56:03.716Z,22.38
2023-03-03T06:01:05.459Z,21.48
2023-03-03T06:06:09.118Z,26.63
2023-03-03T06:11:11.290Z,22.42
2023-03-03T06:16:13.119Z,23.80
2023-03-03T06:21:14.795Z,22.67
2023-03-03T06:26:16.339Z,22.42
2023-03-03T06:31:17.989Z,22.65
2023-03-03T06:36:20.192Z,24.27
2023-03-03T06:41:21.741Z,25.85
2023-03-03T06:46:23.447Z,22.67
2023-03-03T06:51:31.009Z,23.13
2023-03-03T06:56:36.742Z,21.85
2023-03-03T07:01:38.615Z,23.05
2023-03-03T07:06:40.172Z,22.38
2023-03-03T07:11:41.843Z,23.67
2023-03-03T07:16:43.550Z,23.20
2023-03-03T07:21:45.128Z,22.15
2023-03-03T07:26:46.646Z,22.02
2023-03-03T07:31:50.003Z,21.88
2023-03-03T07:36:57.723Z,23.98
2023-03-03T07:42:21.165Z,24.23
2023-03-03T07:47:31.805Z,24.05
2023-03-03T07:52:40.582Z,24.98
2023-03-03T07:57:43.062Z,28.90
2023-03-03T08:02:53.800Z,26.88
2023-03-03T08:08:16.323Z,29.65
2023-03-03T08:13:24.135Z,28.10
2023-03-03T08:18:30.520Z,25.25
2023-03-03T08:23:32.062Z,25.13
2023-03-03T08:28:33.850Z,26.13
2023-03-03T08:33:35.543Z,24.02
2023-03-03T08:38:37.578Z,29.33
2023-03-03T08:43:39.428Z,26.15
2023-03-03T08:48:41.081Z,26.90
2023-03-03T08:53:42.686Z,29.80
2023-03-03T08:59:01.297Z,27.08
2023-03-03T09:09:05.709Z,27.35
2023-03-03T09:14:14.665Z,25.85
2023-03-03T09:19:32.945Z,25.20
2023-03-03T09:24:36.158Z,27.92
2023-03-03T09:29:40.552Z,27.08
2023-03-03T09:34:43.116Z,26.45
2023-03-03T09:39:48.614Z,24.88
2023-03-03T09:45:15.217Z,25.55
2023-03-03T09:50:42.236Z,24.75
2023-03-03T09:55:54.644Z,25.40
2023-03-03T10:01:28.336Z,23.45
2023-03-03T10:06:38.530Z,25.15
2023-03-03T10:11:56.467Z,26.65
2023-03-03T10:17:39.449Z,23.92
2023-03-03T10:23:10.345Z,24.95
2023-03-03T10:28:30.258Z,24.90
2023-03-03T10:33:48.094Z,25.10
2023-03-03T10:39:15.999Z,24.35
2023-03-03T10:44:32.827Z,24.38
2023-03-03T10:49:50.425Z,23.00
2023-03-03T10:55:10.281Z,25.13
2023-03-03T11:00:18.242Z,24.17
2023-03-03T11:05:25.083Z,22.77
2023-03-03T11:10:32.641Z,26.17
2023-03-03T11:15:39.744Z,26.13
2023-03-03T11:21:23.004Z,24.48
2023-03-03T11:26:30.406Z,25.02
2023-03-03T11:32:03.221Z,26.15
2023-03-03T11:37:09.914Z,23.42
2023-03-03T11:42:34.881Z,23.63
2023-03-03T11:47:58.290Z,22.63
2023-03-03T11:53:54.259Z,23.23
2023-03-03T11:59:14.299Z,20.58
2023-03-03T12:04:20.553Z,22.52
2023-03-03T12:09:38.983Z,23.02
2023-03-03T12:14:58.932Z,22.95
2023-03-03T12:20:23.604Z,23.35
2023-03-03T12:25:45.262Z,23.15
2023-03-03T12:31:08.921Z,21.63
2023-03-03T12:36:22.517Z,22.55
2023-03-03T12:41:56.143Z,22.90
2023-03-03T12:47:04.036Z,22.52
2023-03-03T12:52:29.530Z,21.88
2023-03-03T12:57:39.461Z,22.33
2023-03-03T13:02:59.154Z,24.23
2023-03-03T13:08:22.613Z,23.90
2023-03-03T13:13:48.884Z,23.80
2023-03-03T13:19:16.170Z,24.60
2023-03-03T13:24:35.408Z,24.08
2023-03-03T13:29:42.690Z,24.10
2023-03-03T13:35:16.687Z,23.33
2023-03-03T13:40:27.848Z,23.90
2023-03-03T13:45:35.598Z,25.63
2023-03-03T13:51:14.964Z,24.35
2023-03-03T13:56:37.025Z,24.92
2023-03-03T14:02:03.643Z,24.67
2023-03-03T14:07:17.266Z,23.00
2023-03-03T14:12:29.450Z,22.73
2023-03-03T14:17:37.203Z,21.63
2023-03-03T14:23:01.866Z,24.45
2023-03-03T14:28:14.231Z,23.15
2023-03-03T14:33:21.540Z,23.83
2023-03-03T14:38:35.676Z,23.48
2023-03-03T14:43:58.750Z,23.42
2023-03-03T14:49:34.168Z,24.33
2023-03-03T14:54:41.409Z,24.63
2023-03-03T15:00:06.731Z,23.63
2023-03-03T15:05:19.675Z,23.85
2023-03-03T15:10:30.777Z,22.95
2023-03-03T15:15:32.435Z,24.30
2023-03-03T15:20:46.705Z,23.90
2023-03-03T15:26:03.673Z,24.10
2023-03-03T15:31:12.996Z,23.33
2023-03-03T15:36:43.832Z,22.25
2023-03-03T15:42:06.084Z,24.40
2023-03-03T15:47:32.604Z,23.67
2023-03-03T15:52:34.577Z,23.42
2023-03-03T15:57:42.231Z,24.42
2023-03-03T16:02:58.796Z,23.00
2023-03-03T16:08:32.975Z,23.20
2023-03-03T16:13:43.651Z,24.75
2023-03-03T16:19:17.676Z,23.50
2023-03-03T16:24:41.200Z,23.08
2023-03-03T16:29:59.637Z,24.48
2023-03-03T16:35:19.515Z,21.95
2023-03-03T16:45:35.399Z,23.27
2023-03-03T16:50:39.724Z,22.50
2023-03-03T16:55:58.209Z,22.88
2023-03-03T17:01:21.603Z,21.92
2023-03-03T17:06:48.042Z,21.90
2023-03-03T17:12:14.561Z,22.38
2023-03-03T17:17:36.438Z,24.15
2023-03-03T17:23:09.007Z,23.15
2023-03-03T17:28:25.705Z,22.38
2023-03-03T17:33:46.003Z,21.35
2023-03-03T17:39:13.915Z,23.50
2023-03-03T17:44:35.500Z,20.88
2023-03-03T17:49:55.980Z,23.85
2023-03-03T17:55:10.159Z,21.17
2023-03-03T18:00:33.139Z,21.17
2023-03-03T18:05:43.842Z,20.25
2023-03-03T18:11:07.265Z,19.40
2023-03-03T18:16:28.533Z,20.48
2023-03-03T18:22:16.634Z,22.08
2023-03-03T18:27:24.158Z,24.27
2023-03-03T18:32:42.805Z,25.08
2023-03-03T18:37:45.136Z,23.90
2023-03-03T18:42:49.805Z,24.38
2023-03-03T18:48:14.100Z,23.88
2023-03-03T18:53:29.878Z,22.45
2023-03-03T18:58:34.037Z,21.05
2023-03-03T19:03:55.333Z,23.92
2023-03-03T19:08:58.681Z,23.00
2023-03-03T19:14:25.947Z,22.48
2023-03-03T19:19:34.363Z,22.45
2023-03-03T19:24:37.347Z,21.90
2023-03-03T19:29:44.902Z,21.65
2023-03-03T19:35:14.816Z,23.17
2023-03-03T19:40:19.404Z,21.73
2023-03-03T19:45:53.598Z,27.48
2023-03-03T19:51:13.275Z,24.45
2023-03-03T20:01:32.969Z,27.00
2023-03-03T20:06:40.381Z,24.35
2023-03-03T20:11:59.078Z,21.17
2023-03-03T20:17:42.283Z,23.17
2023-03-03T20:23:06.870Z,23.38
2023-03-03T20:28:31.248Z,20.40
2023-03-03T20:33:44.861Z,21.02
2023-03-03T20:39:00.659Z,18.17
2023-03-03T20:44:33.889Z,17.45
2023-03-03T20:50:06.557Z,19.52
2023-03-03T20:55:39.957Z,19.35
2023-03-03T21:01:06.448Z,17.80
2023-03-03T21:06:15.267Z,17.30
2023-03-03T21:11:29.668Z,16.90
2023-03-03T21:16:32.930Z,16.73
2023-03-03T21:21:38.036Z,16.27
2023-03-03T21:26:56.264Z,16.25
2023-03-03T21:32:05.165Z,15.73
2023-03-03T21:37:10.047Z,15.15
2023-03-03T21:42:15.464Z,18.85
2023-03-03T21:47:18.026Z,18.90
2023-03-03T21:52:22.493Z,15.98
2023-03-03T21:57:25.152Z,16.08
2023-03-03T22:02:26.745Z,15.90
2023-03-03T22:07:28.367Z,15.52
2023-03-03T22:12:29.925Z,15.75
2023-03-03T22:17:31.498Z,18.65
2023-03-03T22:22:33.257Z,19.65
2023-03-03T22:27:34.857Z,17.65
2023-03-03T22:32:36.384Z,17.23
2023-03-03T22:37:37.999Z,17.00
2023-03-03T22:42:39.549Z,18.65
2023-03-03T22:47:41.229Z,17.10
2023-03-03T22:52:42.975Z,16.90
2023-03-03T22:57:44.539Z,15.98
2023-03-03T23:02:46.091Z,17.38
2023-03-03T23:07:47.650Z,18.98
2023-03-03T23:12:49.185Z,15.57
2023-03-03T23:17:50.927Z,16.40
2023-03-03T23:22:52.840Z,13.85
2023-03-03T23:27:55.170Z,13.45
2023-03-03T23:32:56.766Z,17.05
2023-03-03T23:37:58.331Z,16.40
2023-03-03T23:42:59.856Z,16.00
2023-03-03T23:48:02.013Z,17.70
2023-03-03T23:53:04.933Z,15.25
2023-03-03T23:58:06.488Z,16.35
